createdAt,value
2018-07-09T08:33:19.793Z,27.00
2018-07-09T08:35:48.420Z,23.60
2018-07-09T08:38:16.600Z,23.30
2018-07-09T08:40:44.905Z,23.20
2018-07-09T08:43:13.099Z,23.10
2018-07-09T08:45:41.285Z,23.20
2018-07-09T08:48:09.460Z,23.50
2018-07-09T08:50:37.764Z,23.30
2018-07-09T08:53:06.104Z,23.10
2018-07-09T08:55:34.804Z,23.40
2018-07-09T08:58:03.068Z,23.30
2018-07-09T09:00:31.220Z,23.10
2018-07-09T09:02:59.416Z,23.00
2018-07-09T09:05:27.660Z,23.00
2018-07-09T09:54:47.245Z,22.90
2018-07-09T09:57:15.433Z,23.10
2018-07-09T09:59:44.532Z,23.20
2018-07-09T10:02:12.715Z,23.00
2018-07-09T10:07:08.929Z,23.00
2018-07-09T10:09:37.245Z,22.90
2018-07-09T10:12:05.633Z,23.20
2018-07-09T10:14:33.841Z,23.20
2018-07-09T10:17:02.069Z,23.30
2018-07-09T10:19:30.246Z,23.30
2018-07-09T10:21:58.569Z,23.40
2018-07-09T10:24:26.738Z,23.10
2018-07-09T11:41:02.554Z,23.00
2018-07-09T11:43:30.914Z,23.50
2018-07-09T11:45:59.106Z,23.60
2018-07-09T11:48:27.254Z,23.50
2018-07-09T11:50:55.459Z,23.40
2018-07-09T11:53:23.661Z,23.30
2018-07-09T11:55:51.855Z,23.10
2018-07-09T11:58:20.122Z,23.10
2018-07-09T12:00:48.369Z,23.00
2018-07-09T12:03:16.643Z,23.20
2018-07-09T12:05:48.483Z,23.30
2018-07-09T12:08:18.611Z,23.40
2018-07-09T12:10:46.923Z,23.50
2018-07-09T12:13:15.126Z,23.40
2018-07-09T12:15:43.367Z,23.70
2018-07-09T12:18:11.622Z,24.00
2018-07-09T12:20:39.787Z,24.40
2018-07-09T12:23:08.055Z,24.50
2018-07-09T12:25:36.294Z,24.60
2018-07-09T12:28:04.720Z,24.80
2018-07-09T12:30:33.015Z,25.00
2018-07-09T12:33:01.198Z,24.90
2018-07-09T12:35:29.377Z,24.90
2018-07-09T12:37:57.559Z,25.10
2018-07-09T12:40:25.728Z,25.10
2018-07-09T12:42:53.922Z,25.10
2018-07-09T12:45:22.120Z,25.30
2018-07-09T12:47:50.343Z,25.60
2018-07-09T12:50:18.499Z,25.50
2018-07-09T12:52:46.687Z,25.00
2018-07-09T12:55:14.872Z,25.30
2018-07-09T12:57:43.138Z,25.10
2018-07-09T13:00:11.404Z,24.70
2018-07-09T13:02:39.603Z,24.50
2018-07-09T13:05:07.896Z,25.00
2018-07-09T13:07:36.419Z,24.90
2018-07-09T13:10:04.901Z,24.80
2018-07-09T13:12:33.231Z,24.90
2018-07-09T13:15:01.461Z,24.70
2018-07-09T13:17:29.724Z,24.70
2018-07-09T13:19:57.950Z,24.80
2018-07-09T13:22:26.167Z,24.90
2018-07-09T13:24:54.332Z,25.10
2018-07-09T13:27:22.510Z,25.30
2018-07-09T13:29:50.737Z,24.90
2018-07-09T13:32:18.919Z,24.70
2018-07-09T13:34:47.141Z,24.90
2018-07-09T13:37:15.312Z,25.00
2018-07-09T13:39:43.489Z,24.90
2018-07-09T13:42:11.688Z,24.90
2018-07-09T13:44:39.852Z,25.00
2018-07-09T13:47:08.144Z,24.70
2018-07-09T13:49:36.556Z,24.50
2018-07-09T13:52:04.864Z,24.50
2018-07-09T13:54:33.136Z,24.50
2018-07-09T13:57:01.560Z,24.50
2018-07-09T13:59:29.733Z,24.50
2018-07-09T14:01:57.937Z,24.30
2018-07-09T14:04:26.114Z,24.20
2018-07-09T14:06:54.316Z,24.00
2018-07-09T14:09:22.513Z,24.20
2018-07-09T14:14:47.488Z,23.90
2018-07-09T15:26:52.058Z,23.70
2018-07-09T15:31:59.486Z,23.90
2018-07-09T15:36:55.869Z,23.80
2018-07-09T16:01:35.814Z,23.70
2018-07-09T16:04:04.197Z,24.10
2018-07-09T16:06:32.999Z,24.40
2018-07-09T16:09:01.315Z,24.50
